Time;durP1;ratioP1;P1;durP2;ratioP2;P2;SDS_P1;SDS_P2;PMS_P1;PMS_P2;Temp;Humidity;BMP_temperature;BMP_pressure;BME280_temperature;BME280_humidity;BME280_pressure;Samples;Min_cycle;Max_cycle;Signal;HPM_P1;HPM_P2
2022/10/19 00:01:11;;;;;;;8.40;2.63;;;19.70;62.40;;;;;;6262529;22;20016;-79
2022/10/19 00:03:37;;;;;;;4.72;2.35;;;19.70;62.40;;;;;;6263116;22;20019;-73
2022/10/19 00:06:24;;;;;;;4.97;2.55;;;19.70;62.40;;;;;;6264481;22;20046;-79
2022/10/19 00:08:57;;;;;;;5.90;2.58;;;19.70;62.40;;;;;;6262292;22;20019;-80
2022/10/19 00:11:23;;;;;;;4.32;2.17;;;19.70;62.40;;;;;;6264031;22;20194;-80
2022/10/19 00:13:49;;;;;;;4.15;2.30;;;19.70;62.40;;;;;;6264217;22;20320;-80
2022/10/19 00:16:16;;;;;;;3.97;2.00;;;19.70;62.40;;;;;;6262882;22;20617;-78
2022/10/19 00:18:43;;;;;;;5.22;2.30;;;19.70;62.30;;;;;;6238375;22;20481;-75
2022/10/19 00:21:11;;;;;;;3.60;2.25;;;19.70;62.40;;;;;;6236068;22;20016;-78
2022/10/19 00:23:37;;;;;;;3.80;2.40;;;19.70;62.30;;;;;;6264972;22;20051;-81
2022/10/19 00:26:04;;;;;;;4.30;2.28;;;19.70;62.30;;;;;;6262875;22;20016;-80
2022/10/19 00:28:30;;;;;;;5.00;2.30;;;19.70;62.30;;;;;;6264369;22;20020;-74
2022/10/19 00:30:56;;;;;;;4.03;2.20;;;19.70;62.30;;;;;;6263750;22;20111;-76
2022/10/19 00:33:22;;;;;;;3.97;2.30;;;19.70;62.30;;;;;;6264571;22;20020;-72
2022/10/19 00:35:51;;;;;;;5.15;2.28;;;19.60;62.30;;;;;;6263624;22;20066;-77
2022/10/19 00:38:19;;;;;;;3.13;2.15;;;19.70;62.30;;;;;;6262140;22;20023;-77
2022/10/19 00:40:45;;;;;;;3.47;1.80;;;19.70;62.30;;;;;;6237635;22;20355;-77
2022/10/19 00:43:16;;;;;;;3.92;1.98;;;19.60;62.20;;;;;;6263130;22;20650;-79
2022/10/19 00:45:42;;;;;;;3.85;2.22;;;19.70;62.30;;;;;;6264369;22;20024;-73
2022/10/19 00:48:10;;;;;;;3.50;2.00;;;19.60;62.20;;;;;;6262355;22;20027;-72
2022/10/19 00:50:36;;;;;;;;;;;19.60;62.20;;;;;;6264992;22;20432;-77
2022/10/19 00:53:02;;;;;;;7.05;2.03;;;19.60;62.20;;;;;;6237113;22;19919;-77
2022/10/19 00:55:28;;;;;;;2.83;1.80;;;19.70;62.30;;;;;;6233992;22;20018;-68
2022/10/19 00:57:54;;;;;;;3.22;2.20;;;19.60;62.20;;;;;;6263728;22;20353;-70
2022/10/19 01:00:20;;;;;;;3.40;1.92;;;19.60;62.20;;;;;;6263616;22;20023;-74
2022/10/19 01:02:46;;;;;;;4.25;1.98;;;19.60;62.20;;;;;;6263455;22;20034;-67
2022/10/19 01:05:12;;;;;;;6.20;2.25;;;19.60;62.20;;;;;;6262793;22;20020;-76
2022/10/19 01:07:37;;;;;;;4.28;2.00;;;19.70;62.30;;;;;;6263758;22;20168;-71
2022/10/19 01:10:03;;;;;;;3.85;2.05;;;19.60;62.30;;;;;;6262919;22;20517;-73
2022/10/19 01:13:13;;;;;;;4.07;1.83;;;19.70;62.30;;;;;;6262369;22;20019;-70
2022/10/19 01:15:45;;;;;;;5.07;2.35;;;19.60;62.20;;;;;;6263068;22;20016;-74
2022/10/19 01:18:23;;;;;;;3.72;1.98;;;19.60;62.20;;;;;;6236146;22;20054;-79
2022/10/19 01:21:12;;;;;;;3.13;1.88;;;19.60;62.20;;;;;;6236849;22;20344;-68
2022/10/19 01:23:44;;;;;;;3.20;2.00;;;19.60;62.20;;;;;;6264111;22;20097;-70
2022/10/19 01:26:40;;;;;;;3.45;1.88;;;19.60;62.20;;;;;;6234217;22;20024;-71
2022/10/19 01:29:36;;;;;;;3.38;2.03;;;19.60;62.20;;;;;;6263419;22;20082;-70
2022/10/19 01:32:08;;;;;;;4.82;2.17;;;19.60;62.20;;;;;;6236316;22;20188;-66
2022/10/19 01:34:45;;;;;;;3.97;2.00;;;19.60;62.20;;;;;;6234387;22;20169;-72
2022/10/19 01:37:39;;;;;;;3.67;1.90;;;19.60;62.20;;;;;;6264630;22;20032;-69
2022/10/19 01:40:24;;;;;;;3.08;1.60;;;19.60;62.20;;;;;;6263388;22;20045;-73
2022/10/19 01:43:05;;;;;;;4.80;1.80;;;19.60;62.20;;;;;;6262565;22;20015;-69
2022/10/19 01:45:40;;;;;;;3.70;2.00;;;19.60;62.20;;;;;;6261355;22;20480;-74
2022/10/19 01:48:14;;;;;;;2.78;1.75;;;19.60;62.20;;;;;;6228370;22;20019;-72
2022/10/19 01:50:50;;;;;;;2.65;1.73;;;19.60;62.20;;;;;;6209790;22;20062;-73
2022/10/19 01:53:17;;;;;;;4.07;1.80;;;19.60;62.20;;;;;;6261872;22;20145;-68
2022/10/19 01:55:47;;;;;;;2.97;1.50;;;19.60;62.30;;;;;;6261886;22;20019;-75
2022/10/19 01:58:17;;;;;;;3.30;1.60;;;19.60;62.20;;;;;;6264306;22;20019;-77
2022/10/19 02:00:45;;;;;;;3.88;1.88;;;19.60;62.20;;;;;;6262065;22;20047;-79
2022/10/19 02:03:12;;;;;;;4.30;1.88;;;19.60;62.30;;;;;;6264328;22;20020;-79
2022/10/19 02:05:39;;;;;;;6.07;1.88;;;19.60;62.20;;;;;;6261480;22;20588;-77
2022/10/19 02:08:19;;;;;;;3.45;1.85;;;19.60;62.20;;;;;;6264810;22;20012;-77
2022/10/19 02:10:46;;;;;;;3.05;1.85;;;19.60;62.20;;;;;;6263772;22;20020;-77
2022/10/19 02:13:14;;;;;;;3.13;1.90;;;19.60;62.20;;;;;;6263242;22;19999;-76
2022/10/19 02:15:44;;;;;;;3.13;1.90;;;19.60;62.20;;;;;;6263609;22;20452;-79
2022/10/19 02:18:12;;;;;;;2.25;1.52;;;19.60;62.20;;;;;;6234213;22;20011;-75
2022/10/19 02:20:38;;;;;;;4.50;1.48;;;19.60;62.30;;;;;;6264097;22;20424;-72
2022/10/19 02:23:05;;;;;;;3.45;1.73;;;19.60;62.20;;;;;;6263790;22;20023;-79
2022/10/19 02:25:31;;;;;;;4.63;1.75;;;19.60;62.20;;;;;;6262225;22;20086;-80
2022/10/19 02:28:00;;;;;;;3.38;1.60;;;19.60;62.20;;;;;;6263631;22;20081;-76
2022/10/19 02:30:26;;;;;;;3.20;1.95;;;19.60;62.20;;;;;;6234646;22;20026;-78
2022/10/19 02:32:52;;;;;;;3.03;1.75;;;19.60;62.30;;;;;;6263458;22;20424;-75
2022/10/19 02:35:17;;;;;;;2.42;1.42;;;19.60;62.20;;;;;;6261224;22;20027;-73
2022/10/19 02:37:43;;;;;;;2.50;1.55;;;19.60;62.30;;;;;;6263944;22;20016;-77
2022/10/19 02:40:10;;;;;;;3.67;1.55;;;19.60;62.20;;;;;;6260685;22;20019;-79
2022/10/19 02:43:03;;;;;;;2.65;1.70;;;19.60;62.20;;;;;;6263369;22;20108;-76
2022/10/19 02:45:38;;;;;;;4.40;1.90;;;19.60;62.20;;;;;;6235930;22;20023;-70
2022/10/19 02:48:12;;;;;;;2.60;1.50;;;19.60;62.20;;;;;;6262347;22;20356;-68
2022/10/19 02:50:43;;;;;;;2.20;1.60;;;19.60;62.20;;;;;;6262181;22;20015;-68
2022/10/19 02:53:08;;;;;;;2.50;1.73;;;19.60;62.20;;;;;;6235743;22;20025;-71
2022/10/19 02:55:34;;;;;;;2.80;1.60;;;19.60;62.20;;;;;;6234769;22;20012;-71
2022/10/19 02:58:00;;;;;;;2.60;1.45;;;19.60;62.20;;;;;;6236126;22;20020;-79
2022/10/19 03:00:25;;;;;;;2.53;1.60;;;19.60;62.20;;;;;;6261740;22;20023;-80
2022/10/19 03:02:51;;;;;;;3.10;1.58;;;19.60;62.20;;;;;;6262002;22;20053;-68
2022/10/19 03:05:16;;;;;;;2.38;1.60;;;19.60;62.20;;;;;;6260208;22;20750;-75
2022/10/19 03:07:42;;;;;;;3.15;1.50;;;19.60;62.20;;;;;;6263600;22;20410;-72
2022/10/19 03:10:08;;;;;;;2.35;1.30;;;19.60;62.20;;;;;;6262300;22;20024;-82
2022/10/19 03:12:33;;;;;;;2.83;1.70;;;19.60;62.20;;;;;;6262788;22;20039;-68
2022/10/19 03:14:59;;;;;;;3.50;1.30;;;19.60;62.20;;;;;;6262062;22;20015;-70
2022/10/19 03:17:25;;;;;;;3.53;1.40;;;19.60;62.20;;;;;;6235479;22;20018;-69
2022/10/19 03:19:51;;;;;;;2.47;1.50;;;19.60;62.20;;;;;;6235407;22;20162;-68
2022/10/19 03:22:16;;;;;;;1.92;1.50;;;19.60;62.20;;;;;;6261671;22;20023;-71
2022/10/19 03:24:42;;;;;;;3.08;1.20;;;19.60;62.20;;;;;;6263332;22;20352;-68
2022/10/19 03:27:08;;;;;;;3.30;1.60;;;19.60;62.20;;;;;;6234183;22;20431;-79
2022/10/19 03:29:33;;;;;;;3.00;1.48;;;19.60;62.90;;;;;;6235867;22;20026;-70
2022/10/19 03:32:00;;;;;;;2.72;1.48;;;19.60;62.20;;;;;;6261906;22;20070;-69
2022/10/19 03:34:26;;;;;;;2.97;1.60;;;19.60;62.10;;;;;;6261553;22;20020;-75
2022/10/19 03:36:51;;;;;;;3.72;1.50;;;19.60;62.20;;;;;;6263773;22;20424;-68
2022/10/19 03:39:17;;;;;;;4.47;1.60;;;19.60;62.20;;;;;;6263576;22;20020;-69
2022/10/19 03:41:43;;;;;;;3.35;1.55;;;19.60;62.20;;;;;;6265163;22;20101;-73
2022/10/19 03:44:10;;;;;;;3.13;1.20;;;19.60;62.20;;;;;;6211073;22;20098;-68
2022/10/19 03:46:36;;;;;;;2.80;1.50;;;19.60;62.10;;;;;;6265421;22;20016;-73
2022/10/19 03:49:03;;;;;;;4.10;1.70;;;19.60;62.20;;;;;;6263424;22;20081;-72
2022/10/19 03:51:30;;;;;;;3.85;1.30;;;19.60;62.10;;;;;;6264606;22;20412;-77
2022/10/19 03:54:07;;;;;;;2.88;1.50;;;19.60;62.10;;;;;;6266193;22;20065;-70
2022/10/19 03:56:34;;;;;;;3.67;1.50;;;19.60;62.10;;;;;;6235813;22;20070;-72
2022/10/19 03:59:01;;;;;;;2.50;1.23;;;19.60;62.10;;;;;;6264269;22;20051;-77
2022/10/19 04:01:36;;;;;;;2.70;1.45;;;19.60;62.10;;;;;;6236772;22;20023;-69
2022/10/19 04:04:09;;;;;;;2.00;1.20;;;19.60;62.10;;;;;;6265266;22;20120;-70
2022/10/19 04:06:38;;;;;;;1.88;1.30;;;19.60;62.10;;;;;;6264894;22;20012;-69
2022/10/19 04:09:05;;;;;;;4.03;1.40;;;19.60;62.10;;;;;;6264399;22;20019;-76
2022/10/19 04:11:32;;;;;;;1.55;1.20;;;19.60;62.00;;;;;;6238222;22;20074;-72
2022/10/19 04:13:59;;;;;;;2.72;1.30;;;19.50;62.00;;;;;;6263231;22;20053;-70
2022/10/19 04:16:26;;;;;;;3.22;1.25;;;19.60;62.00;;;;;;6238024;22;20861;-70
2022/10/19 04:18:52;;;;;;;2.47;1.20;;;19.60;62.20;;;;;;6262618;22;20024;-70
2022/10/19 04:21:46;;;;;;;2.58;1.38;;;19.60;62.10;;;;;;6265829;22;20012;-77
2022/10/19 04:24:14;;;;;;;2.88;1.10;;;19.60;62.00;;;;;;6261233;22;20047;-75
2022/10/19 04:26:43;;;;;;;2.15;1.13;;;19.60;62.00;;;;;;6263307;22;20086;-68
2022/10/19 04:29:10;;;;;;;4.00;1.52;;;19.60;62.00;;;;;;6263644;22;20019;-68
2022/10/19 04:31:35;;;;;;;5.25;1.27;;;19.60;62.00;;;;;;6261478;22;20470;-75
2022/10/19 04:34:01;;;;;;;4.03;1.30;;;19.50;61.90;;;;;;6264676;22;20157;-68
2022/10/19 04:36:27;;;;;;;2.92;1.33;;;19.50;61.90;;;;;;6263111;22;20016;-79
2022/10/19 04:38:52;;;;;;;2.42;1.45;;;19.60;62.00;;;;;;6265570;22;20015;-69
2022/10/19 04:41:20;;;;;;;2.15;1.20;;;19.60;62.00;;;;;;6263114;22;20023;-71
2022/10/19 04:43:46;;;;;;;2.65;1.08;;;19.50;61.90;;;;;;6264670;22;20444;-73
2022/10/19 04:46:14;;;;;;;2.50;1.20;;;19.50;61.90;;;;;;6264397;22;20077;-74
2022/10/19 04:48:41;;;;;;;2.17;1.10;;;19.50;62.10;;;;;;6260454;22;20016;-78
2022/10/19 04:51:08;;;;;;;3.83;1.50;;;19.60;61.90;;;;;;6236691;22;20074;-78
2022/10/19 04:53:34;;;;;;;3.30;1.33;;;19.50;61.90;;;;;;6263676;22;20103;-79
2022/10/19 04:56:03;;;;;;;1.85;1.02;;;19.50;61.90;;;;;;6235797;22;20055;-75
2022/10/19 04:58:28;;;;;;;3.63;1.27;;;19.50;61.90;;;;;;6262445;22;20054;-77
2022/10/19 05:00:54;;;;;;;2.63;0.95;;;19.50;61.90;;;;;;6237222;22;20020;-69
2022/10/19 05:03:19;;;;;;;2.33;1.10;;;19.50;61.90;;;;;;6263180;22;20023;-71
2022/10/19 05:05:45;;;;;;;4.20;1.27;;;19.60;61.90;;;;;;6235361;22;20020;-72
2022/10/19 05:08:10;;;;;;;3.40;1.10;;;19.50;61.90;;;;;;6264291;22;20024;-72
2022/10/19 05:10:36;;;;;;;4.45;0.98;;;19.50;61.90;;;;;;6262381;22;20035;-71
2022/10/19 05:13:02;;;;;;;3.25;1.30;;;19.50;61.90;;;;;;6237041;22;20026;-70
2022/10/19 05:15:29;;;;;;;3.20;1.20;;;19.50;61.90;;;;;;6264327;22;20011;-68
2022/10/19 05:17:55;;;;;;;3.00;1.20;;;19.50;61.90;;;;;;6261946;22;20065;-70
2022/10/19 05:20:21;;;;;;;3.70;1.20;;;19.50;62.00;;;;;;6234746;22;20020;-65
2022/10/19 05:22:46;;;;;;;5.28;1.33;;;19.50;62.00;;;;;;6236148;22;20015;-68
2022/10/19 05:25:12;;;;;;;3.33;1.10;;;19.50;61.90;;;;;;6237276;22;20907;-70
2022/10/19 05:27:39;;;;;;;2.05;1.05;;;19.50;61.90;;;;;;6261977;22;20020;-69
2022/10/19 05:30:07;;;;;;;2.90;1.10;;;19.60;62.00;;;;;;6263607;22;20020;-72
2022/10/19 05:32:33;;;;;;;4.65;1.15;;;19.50;61.90;;;;;;6262505;22;20026;-69
2022/10/19 05:34:59;;;;;;;1.65;0.98;;;19.50;61.90;;;;;;6263591;22;20019;-76
2022/10/19 05:37:24;;;;;;;3.75;1.15;;;19.50;61.90;;;;;;6261862;22;20016;-70
2022/10/19 05:39:50;;;;;;;3.45;1.20;;;19.50;61.90;;;;;;6234235;22;20015;-66
2022/10/19 05:42:16;;;;;;;4.97;1.13;;;19.50;61.80;;;;;;6265047;22;20351;-75
2022/10/19 05:44:44;;;;;;;2.50;1.20;;;19.60;61.90;;;;;;6235613;22;20019;-68
2022/10/19 05:47:09;;;;;;;3.17;1.17;;;19.50;61.80;;;;;;6236089;22;20147;-66
2022/10/19 05:49:35;;;;;;;10.48;1.17;;;19.50;61.80;;;;;;6260890;22;20138;-76
2022/10/19 05:52:00;;;;;;;3.88;1.00;;;19.50;61.70;;;;;;6236571;22;20102;-69
2022/10/19 05:54:26;;;;;;;3.60;1.00;;;19.50;61.70;;;;;;6236568;22;20016;-75
2022/10/19 05:56:52;;;;;;;3.38;1.17;;;19.50;61.70;;;;;;6236396;22;20043;-74
2022/10/19 05:59:19;;;;;;;2.25;1.10;;;19.50;61.70;;;;;;6235287;22;20030;-76
2022/10/19 06:01:48;;;;;;;1.73;0.93;;;19.50;61.70;;;;;;6262683;22;20094;-78
2022/10/19 06:04:14;;;;;;;4.95;1.23;;;19.50;61.70;;;;;;6262890;22;20530;-70
2022/10/19 06:06:40;;;;;;;2.55;1.08;;;19.50;61.70;;;;;;6262665;22;20012;-75
2022/10/19 06:09:06;;;;;;;3.40;1.17;;;19.50;61.70;;;;;;6264680;22;20060;-69
2022/10/19 06:11:36;;;;;;;1.88;0.93;;;19.50;61.70;;;;;;6235918;22;20060;-66
2022/10/19 06:14:04;;;;;;;2.80;1.20;;;19.40;61.60;;;;;;6264163;22;20020;-67
2022/10/19 06:16:31;;;;;;;7.07;1.20;;;19.50;61.60;;;;;;6264681;22;20051;-73
2022/10/19 06:18:58;;;;;;;2.85;1.02;;;19.50;61.60;;;;;;6262095;22;20059;-74
2022/10/19 06:21:27;;;;;;;2.40;0.93;;;19.50;61.60;;;;;;6264187;22;20023;-74
2022/10/19 06:23:58;;;;;;;5.85;1.10;;;19.40;61.50;;;;;;6237002;22;20093;-75
2022/10/19 06:26:25;;;;;;;5.70;1.40;;;19.50;61.60;;;;;;6237012;22;20022;-78
2022/10/19 06:28:54;;;;;;;2.70;1.10;;;19.40;61.50;;;;;;6236386;22;20016;-76
2022/10/19 06:31:19;;;;;;;2.63;1.20;;;19.50;61.60;;;;;;6264776;22;20098;-73
2022/10/19 06:33:45;;;;;;;2.70;1.00;;;19.50;61.60;;;;;;6236136;22;20405;-66
2022/10/19 06:36:17;;;;;;;2.67;1.00;;;19.40;61.50;;;;;;6236478;22;20108;-66
2022/10/19 06:38:42;;;;;;;2.65;1.10;;;19.40;61.50;;;;;;6264445;22;20016;-67
2022/10/19 06:41:09;;;;;;;4.82;1.27;;;19.40;61.50;;;;;;6262850;22;20012;-65
2022/10/19 06:43:35;;;;;;;2.58;1.10;;;19.40;61.40;;;;;;6235933;22;20015;-78
2022/10/19 06:46:04;;;;;;;3.05;0.88;;;19.40;61.50;;;;;;6234616;22;20102;-67
2022/10/19 06:48:30;;;;;;;2.35;1.02;;;19.40;61.50;;;;;;6235611;22;20420;-66
2022/10/19 06:51:02;;;;;;;6.65;1.10;;;19.40;61.40;;;;;;6236924;22;20041;-67
2022/10/19 06:53:28;;;;;;;4.00;1.00;;;19.40;61.50;;;;;;6263661;22;20460;-66
2022/10/19 06:55:58;;;;;;;4.03;0.93;;;19.40;61.50;;;;;;6264369;22;20090;-66
2022/10/19 06:58:24;;;;;;;3.55;1.13;;;19.40;61.50;;;;;;6262173;22;20348;-65
2022/10/19 07:00:55;;;;;;;1.55;0.90;;;19.40;61.50;;;;;;6237685;22;20016;-67
2022/10/19 07:03:22;;;;;;;2.40;1.05;;;19.30;61.60;;;;;;6262710;22;20037;-66
2022/10/19 07:05:58;;;;;;;4.10;1.02;;;19.30;61.60;;;;;;6261953;22;20428;-66
2022/10/19 07:08:26;;;;;;;3.80;1.10;;;19.30;61.70;;;;;;6263957;22;20020;-65
2022/10/19 07:10:53;;;;;;;3.60;1.20;;;19.30;61.80;;;;;;6262554;22;20530;-73
2022/10/19 07:13:19;;;;;;;6.53;1.33;;;19.30;61.90;;;;;;6264513;22;20020;-71
2022/10/19 07:15:46;;;;;;;5.75;1.17;;;19.30;62.10;;;;;;6235770;22;20514;-65
2022/10/19 07:18:11;;;;;;;4.85;0.95;;;19.30;62.10;;;;;;6263765;22;20016;-67
2022/10/19 07:20:37;;;;;;;5.95;1.58;;;19.30;62.20;;;;;;6264092;22;20019;-66
2022/10/19 07:23:02;;;;;;;6.40;1.40;;;19.30;62.30;;;;;;6236987;22;20067;-65
2022/10/19 07:25:29;;;;;;;5.07;1.38;;;19.30;62.40;;;;;;6264600;22;20249;-65
2022/10/19 07:27:55;;;;;;;4.88;1.58;;;19.30;62.50;;;;;;6262672;22;20022;-68
2022/10/19 07:30:21;;;;;;;2.50;1.15;;;19.30;62.70;;;;;;6265200;22;20093;-70
2022/10/19 07:32:47;;;;;;;5.80;1.45;;;19.30;62.60;;;;;;6235238;22;20114;-70
2022/10/19 07:35:13;;;;;;;6.70;1.77;;;19.40;62.70;;;;;;6238206;22;20356;-69
2022/10/19 07:37:39;;;;;;;5.53;1.17;;;19.30;62.60;;;;;;6261883;22;20099;-68
2022/10/19 07:40:05;;;;;;;4.82;1.30;;;19.40;62.70;;;;;;6261022;22;20632;-70
2022/10/19 07:42:31;;;;;;;3.17;1.20;;;19.30;62.60;;;;;;6261740;22;20087;-78
2022/10/19 07:44:56;;;;;;;5.32;1.25;;;19.40;62.70;;;;;;6262237;22;20074;-75
2022/10/19 07:47:22;;;;;;;4.25;1.30;;;19.40;62.80;;;;;;6259653;22;20031;-69
2022/10/19 07:49:48;;;;;;;5.65;1.30;;;19.40;62.80;;;;;;6260318;22;20440;-66
2022/10/19 07:52:13;;;;;;;5.82;1.42;;;19.40;62.70;;;;;;6262989;22;20011;-69
2022/10/19 07:54:39;;;;;;;7.03;1.40;;;19.40;62.70;;;;;;6263442;22;20050;-75
2022/10/19 07:57:04;;;;;;;7.32;1.58;;;19.40;62.70;;;;;;6264214;22;20019;-74
2022/10/19 07:59:33;;;;;;;;;;;19.50;62.70;;;;;;6235506;22;20020;-78
2022/10/19 08:02:01;;;;;;;7.60;1.33;;;19.50;62.80;;;;;;6264608;22;20010;-74
2022/10/19 08:04:26;;;;;;;6.70;1.33;;;19.50;62.60;;;;;;6263045;22;20440;-72
2022/10/19 08:06:52;;;;;;;3.90;1.25;;;19.50;62.60;;;;;;6263613;22;20024;-77
2022/10/19 08:09:17;;;;;;;7.40;1.20;;;19.50;62.70;;;;;;6261832;22;20456;-75
2022/10/19 08:11:43;;;;;;;5.15;1.48;;;19.50;62.60;;;;;;6259887;22;20018;-72
2022/10/19 08:14:08;;;;;;;3.42;1.40;;;19.50;62.60;;;;;;6234510;22;20153;-73
2022/10/19 08:16:38;;;;;;;7.63;1.42;;;19.50;62.60;;;;;;6258807;22;20046;-69
2022/10/19 08:19:13;;;;;;;6.50;1.30;;;19.50;62.60;;;;;;6232994;22;20027;-74
2022/10/19 08:21:42;;;;;;;3.05;1.30;;;19.60;62.70;;;;;;6234307;22;20089;-73
2022/10/19 08:24:08;;;;;;;6.00;1.40;;;19.60;62.70;;;;;;6260199;22;20396;-70
2022/10/19 08:26:36;;;;;;;12.23;1.92;;;19.70;62.70;;;;;;6235411;22;20172;-69
2022/10/19 08:29:05;;;;;;;6.13;1.20;;;19.60;62.70;;;;;;6261511;22;20011;-70
2022/10/19 08:31:31;;;;;;;7.05;1.52;;;19.60;62.80;;;;;;6263601;22;20034;-68
2022/10/19 08:33:57;;;;;;;5.55;1.20;;;19.60;62.80;;;;;;6261391;22;20008;-73
2022/10/19 08:36:22;;;;;;;5.68;1.30;;;19.60;62.70;;;;;;6263939;22;20024;-69
2022/10/19 08:38:49;;;;;;;5.03;1.52;;;19.60;62.70;;;;;;6262924;22;20050;-73
2022/10/19 08:41:21;;;;;;;4.18;1.40;;;19.60;62.70;;;;;;6234745;22;20391;-71
2022/10/19 08:44:11;;;;;;;6.75;1.17;;;19.60;62.70;;;;;;6264014;22;20019;-72
2022/10/19 08:46:50;;;;;;;4.90;1.30;;;19.60;62.70;;;;;;6262576;22;20563;-73
2022/10/19 08:49:22;;;;;;;4.13;1.33;;;19.60;62.80;;;;;;6261322;22;20029;-68
2022/10/19 08:51:53;;;;;;;5.47;1.33;;;19.70;62.90;;;;;;6263194;22;20012;-74
2022/10/19 08:54:19;;;;;;;8.60;1.45;;;19.60;62.90;;;;;;6262751;22;20050;-73
2022/10/19 08:57:21;;;;;;;7.07;1.48;;;19.70;63.00;;;;;;6235702;22;20024;-73
2022/10/19 08:59:55;;;;;;;4.30;1.63;;;19.70;63.10;;;;;;6201500;22;20450;-68
2022/10/19 09:02:48;;;;;;;4.05;1.40;;;19.70;63.10;;;;;;6262943;22;20107;-67
2022/10/19 09:05:38;;;;;;;6.30;1.67;;;19.70;63.20;;;;;;6262989;22;20059;-70
2022/10/19 09:08:03;;;;;;;3.83;1.40;;;19.70;63.90;;;;;;6260473;22;20094;-72
2022/10/19 09:10:37;;;;;;;3.40;1.25;;;19.70;63.10;;;;;;6262088;22;20055;-70
2022/10/19 09:13:09;;;;;;;6.50;1.20;;;19.70;63.10;;;;;;6234053;22;20462;-70
2022/10/19 09:15:43;;;;;;;7.60;1.60;;;19.70;62.90;;;;;;6258300;22;20020;-69
2022/10/19 09:18:27;;;;;;;8.13;1.23;;;19.60;62.80;;;;;;6259093;22;20122;-66
2022/10/19 09:21:22;;;;;;;4.07;1.33;;;19.70;63.00;;;;;;6261133;22;20016;-67
2022/10/19 09:23:55;;;;;;;5.72;1.48;;;19.70;63.00;;;;;;6262255;22;20016;-65
2022/10/19 09:26:23;;;;;;;5.60;1.10;;;19.80;63.10;;;;;;6261383;22;20528;-67
2022/10/19 09:28:52;;;;;;;;;;;19.80;63.00;;;;;;6261648;22;20828;-72
2022/10/19 09:31:35;;;;;;;7.90;1.40;;;19.80;63.00;;;;;;6262821;22;19978;-70
2022/10/19 09:34:10;;;;;;;8.23;1.67;;;19.80;63.00;;;;;;6257878;22;20015;-74
2022/10/19 09:36:45;;;;;;;5.53;1.10;;;19.80;63.00;;;;;;6260483;22;20107;-71
2022/10/19 09:39:12;;;;;;;5.18;1.48;;;19.80;63.00;;;;;;6261290;22;20023;-70
2022/10/19 09:41:55;;;;;;;6.85;1.55;;;19.80;63.00;;;;;;6234248;22;20019;-71
2022/10/19 09:44:22;;;;;;;4.10;1.00;;;19.80;62.90;;;;;;6261698;22;20058;-74
2022/10/19 09:47:26;;;;;;;7.10;1.75;;;19.80;62.90;;;;;;6233866;22;20016;-70
2022/10/19 09:50:16;;;;;;;5.85;0.98;;;19.90;63.00;;;;;;6108379;23;20028;-75
2022/10/19 09:52:48;;;;;;;5.10;1.25;;;19.90;63.00;;;;;;6255623;22;20020;-82
2022/10/19 09:55:26;;;;;;;5.10;1.33;;;19.90;63.00;;;;;;6232974;22;20023;-71
2022/10/19 09:58:19;;;;;;;7.85;1.38;;;19.90;63.00;;;;;;6208788;22;20094;-70
2022/10/19 10:00:53;;;;;;;6.30;1.48;;;19.90;63.70;;;;;;6257092;22;20098;-70
2022/10/19 10:03:39;;;;;;;7.68;1.50;;;19.90;62.90;;;;;;6235345;22;20006;-74
2022/10/19 10:06:08;;;;;;;3.38;1.23;;;19.90;62.90;;;;;;6264345;22;20023;-75
2022/10/19 10:08:44;;;;;;;7.53;1.50;;;19.90;62.90;;;;;;6262081;22;20073;-75
2022/10/19 10:11:13;;;;;;;3.47;1.30;;;19.90;62.80;;;;;;6261551;22;20103;-74
2022/10/19 10:13:41;;;;;;;6.07;1.17;;;19.90;62.80;;;;;;6230400;22;20765;-76
2022/10/19 10:16:12;;;;;;;4.70;1.50;;;19.90;62.80;;;;;;6230545;22;20051;-70
2022/10/19 10:18:57;;;;;;;3.08;0.98;;;19.90;62.80;;;;;;6258086;22;20026;-71
2022/10/19 10:21:35;;;;;;;5.53;1.48;;;19.90;62.80;;;;;;6231305;22;20054;-72
2022/10/19 10:24:22;;;;;;;3.55;1.17;;;19.90;62.80;;;;;;6258870;22;20420;-74
2022/10/19 10:26:54;;;;;;;6.70;1.10;;;19.90;63.50;;;;;;6261307;22;20026;-75
2022/10/19 10:29:21;;;;;;;3.95;1.10;;;19.90;62.80;;;;;;6232028;22;20355;-69
2022/10/19 10:32:18;;;;;;;4.57;1.33;;;20.00;62.80;;;;;;6260715;22;20022;-74
2022/10/19 10:34:57;;;;;;;5.25;1.38;;;20.00;62.60;;;;;;6229012;22;20106;-72
2022/10/19 10:37:43;;;;;;;5.00;1.17;;;20.00;62.70;;;;;;6261926;22;20101;-73
2022/10/19 10:40:28;;;;;;;9.45;1.50;;;19.90;62.40;;;;;;6233528;22;20023;-74
2022/10/19 10:43:00;;;;;;;4.78;1.33;;;19.90;62.30;;;;;;6232976;22;20024;-72
2022/10/19 10:45:38;;;;;;;7.63;1.67;;;20.00;62.30;;;;;;6260891;22;20321;-75
2022/10/19 10:48:34;;;;;;;4.40;1.45;;;19.90;62.30;;;;;;6259292;22;20031;-73
2022/10/19 10:51:01;;;;;;;6.35;1.23;;;19.90;62.30;;;;;;6258278;22;20015;-73
2022/10/19 10:53:42;;;;;;;4.20;1.10;;;19.90;62.40;;;;;;6262045;22;20027;-72
2022/10/19 10:56:27;;;;;;;16.88;1.38;;;20.00;62.50;;;;;;6234015;22;20023;-75
2022/10/19 10:59:11;;;;;;;10.50;1.45;;;20.00;62.50;;;;;;6234271;22;20119;-77
2022/10/19 11:01:46;;;;;;;2.75;1.23;;;20.00;62.60;;;;;;6264422;22;20094;-75
2022/10/19 11:04:20;;;;;;;4.50;1.35;;;20.00;62.60;;;;;;6233453;22;20027;-76
2022/10/19 11:06:58;;;;;;;5.60;1.30;;;20.00;63.40;;;;;;6260253;22;20394;-70
2022/10/19 11:09:41;;;;;;;5.32;1.55;;;20.00;62.60;;;;;;6228098;23;20409;-70
2022/10/19 11:12:13;;;;;;;7.30;1.83;;;20.00;62.60;;;;;;6227904;23;20043;-69
2022/10/19 11:14:47;;;;;;;16.13;1.25;;;20.00;62.60;;;;;;6232799;22;20081;-73
2022/10/19 11:17:27;;;;;;;4.57;1.33;;;20.00;62.70;;;;;;6227601;23;20162;-70
2022/10/19 11:19:53;;;;;;;5.68;1.30;;;20.00;62.60;;;;;;6229044;23;20024;-71
2022/10/19 11:22:30;;;;;;;5.72;1.33;;;20.10;62.70;;;;;;6227400;23;20405;-74
2022/10/19 11:25:17;;;;;;;6.30;1.58;;;20.10;62.80;;;;;;6230872;22;20111;-69
2022/10/19 11:28:04;;;;;;;5.25;1.40;;;20.10;62.70;;;;;;6232991;23;20020;-71
2022/10/19 11:30:49;;;;;;;5.72;1.50;;;20.00;62.50;;;;;;6227516;23;20024;-71
2022/10/19 11:33:29;;;;;;;7.57;1.30;;;20.10;62.40;;;;;;6230067;22;20016;-74
2022/10/19 11:36:00;;;;;;;7.32;1.42;;;20.10;62.30;;;;;;6231866;22;20024;-71
2022/10/19 11:39:01;;;;;;;5.43;1.33;;;20.10;62.10;;;;;;6229212;22;20042;-73
2022/10/19 11:41:49;;;;;;;5.65;1.40;;;20.10;61.80;;;;;;6185577;22;20023;-73
2022/10/19 11:44:40;;;;;;;7.88;1.48;;;20.10;62.00;;;;;;6227232;22;20523;-74
2022/10/19 11:47:33;;;;;;;6.65;1.50;;;20.10;62.20;;;;;;6227378;23;20575;-66
2022/10/19 11:50:28;;;;;;;6.00;1.42;;;20.10;62.30;;;;;;6229261;23;20577;-67
2022/10/19 11:53:24;;;;;;;7.13;1.23;;;20.10;62.40;;;;;;6227764;23;20024;-68
2022/10/19 11:56:05;;;;;;;4.85;1.30;;;20.10;62.40;;;;;;6229423;22;20471;-67
2022/10/19 11:58:48;;;;;;;5.38;1.60;;;20.20;62.40;;;;;;6232592;22;20027;-69
2022/10/19 12:01:14;;;;;;;4.05;1.20;;;20.20;62.50;;;;;;6229975;22;20436;-68
2022/10/19 12:03:54;;;;;;;3.80;1.25;;;20.20;62.60;;;;;;6229069;23;20032;-71
2022/10/19 12:06:45;;;;;;;4.88;1.35;;;20.20;63.30;;;;;;6230058;23;20027;-68
2022/10/19 12:09:46;;;;;;;4.95;1.00;;;20.20;62.60;;;;;;6248651;22;20732;-71
2022/10/19 12:12:25;;;;;;;7.50;1.77;;;20.20;62.60;;;;;;6233980;22;20035;-67
2022/10/19 12:14:53;;;;;;;;;;;20.20;62.60;;;;;;6263148;22;20058;-67
2022/10/19 12:17:31;;;;;;;7.63;1.50;;;20.20;62.20;;;;;;6259070;22;20242;-69
2022/10/19 12:20:05;;;;;;;9.57;1.58;;;20.30;62.30;;;;;;6262087;22;20828;-74
2022/10/19 12:22:36;;;;;;;7.97;1.42;;;20.20;62.10;;;;;;6234509;22;20425;-76
2022/10/19 12:25:02;;;;;;;4.20;1.35;;;20.30;62.10;;;;;;6235526;22;20015;-78
2022/10/19 12:27:37;;;;;;;6.55;1.50;;;20.30;62.10;;;;;;6235709;22;20101;-76
2022/10/19 12:30:16;;;;;;;4.80;1.67;;;20.20;61.90;;;;;;6262462;22;20051;-70
2022/10/19 12:33:12;;;;;;;5.47;1.35;;;20.20;61.80;;;;;;6230722;22;20089;-68
2022/10/19 12:35:57;;;;;;;6.63;1.45;;;20.20;61.80;;;;;;6261924;22;20027;-68
2022/10/19 12:38:35;;;;;;;4.68;1.50;;;20.20;61.70;;;;;;6262039;22;20035;-72
2022/10/19 12:41:13;;;;;;;6.65;1.50;;;20.20;61.80;;;;;;6236697;22;20066;-67
2022/10/19 12:43:55;;;;;;;5.35;1.55;;;20.20;61.80;;;;;;6262672;22;20027;-70
2022/10/19 12:46:43;;;;;;;5.70;1.55;;;20.20;61.70;;;;;;6264945;22;20106;-69
2022/10/19 12:49:27;;;;;;;9.07;1.85;;;20.20;61.70;;;;;;6261133;22;20823;-68
2022/10/19 12:51:55;;;;;;;5.88;1.33;;;20.20;61.50;;;;;;6263991;22;20063;-70
2022/10/19 12:54:35;;;;;;;4.97;1.58;;;20.20;61.50;;;;;;6263403;22;20015;-69
2022/10/19 12:57:03;;;;;;;5.03;1.48;;;20.20;61.50;;;;;;6259656;22;20494;-68
2022/10/19 12:59:32;;;;;;;7.00;1.70;;;20.20;61.50;;;;;;6236600;22;20118;-65
2022/10/19 13:01:59;;;;;;;9.43;1.75;;;20.20;61.50;;;;;;6262941;22;20362;-67
2022/10/19 13:04:31;;;;;;;6.63;1.63;;;20.20;61.40;;;;;;6236353;22;20111;-66
2022/10/19 13:06:57;;;;;;;5.90;1.65;;;20.20;61.30;;;;;;6265130;22;20099;-66
2022/10/19 13:09:44;;;;;;;4.78;1.60;;;20.30;61.20;;;;;;6262917;22;20055;-69
2022/10/19 13:12:17;;;;;;;5.95;1.58;;;20.30;60.90;;;;;;6265580;22;20155;-70